createdAt,value
2019-05-22T00:00:58.382Z,97268.17
2019-05-22T00:02:04.079Z,97252.67
2019-05-22T00:03:24.409Z,97252.67
2019-05-22T00:04:33.009Z,97257.87
2019-05-22T00:05:38.621Z,97257.87
2019-05-22T00:06:44.127Z,97255.41
2019-05-22T00:07:48.938Z,97264.37
2019-05-22T00:08:53.246Z,97265.95
2019-05-22T00:09:58.886Z,97260.34
2019-05-22T00:11:04.368Z,97267.08
2019-05-22T00:12:11.445Z,97263.69
2019-05-22T00:13:18.634Z,97265.05
2019-05-22T00:14:24.319Z,97267.73
2019-05-22T00:15:30.525Z,97275.62
2019-05-22T00:16:35.219Z,97272.47
2019-05-22T00:17:40.965Z,97274.93
2019-05-22T00:18:45.065Z,97269.12
2019-05-22T00:19:50.026Z,97269.45
2019-05-22T00:20:54.218Z,97271.36
2019-05-22T00:22:12.138Z,97271.36
2019-05-22T00:23:17.449Z,97284.03
2019-05-22T00:24:23.518Z,97284.03
2019-05-22T00:25:29.095Z,97274.28
2019-05-22T00:26:33.571Z,97283.94
2019-05-22T00:27:38.483Z,97283.94
2019-05-22T00:28:43.696Z,97288.54
2019-05-22T00:29:48.310Z,97289.09
2019-05-22T00:30:53.014Z,97294.02
2019-05-22T00:31:57.254Z,97282.82
2019-05-22T00:33:01.653Z,97278.78
2019-05-22T00:34:06.172Z,97278.78
2019-05-22T00:35:10.977Z,97294.81
2019-05-22T00:36:14.624Z,97298.42
2019-05-22T00:37:19.405Z,97284.41
2019-05-22T00:38:23.624Z,97280.36
2019-05-22T00:39:29.298Z,97280.36
2019-05-22T00:40:35.182Z,97287.32
2019-05-22T00:41:40.861Z,97285.74
2019-05-22T00:43:01.146Z,97285.52
2019-05-22T00:43:52.198Z,97288.77
2019-05-22T00:44:56.011Z,97283.94
2019-05-22T00:46:02.744Z,97283.94
2019-05-22T00:47:08.333Z,97282.59
2019-05-22T00:48:15.308Z,97279.70
2019-05-22T00:49:20.614Z,97282.79
2019-05-22T00:50:30.655Z,97282.79
2019-05-22T00:51:43.525Z,97279.66
2019-05-22T00:53:04.321Z,97279.66
2019-05-22T00:54:26.763Z,97282.13
2019-05-22T00:55:48.438Z,97271.13
2019-05-22T00:56:56.587Z,97282.81
2019-05-22T00:58:02.170Z,97280.77
2019-05-22T00:59:17.918Z,97278.77
2019-05-22T01:00:39.307Z,97282.58
2019-05-22T01:01:54.787Z,97281.78
2019-05-22T01:03:00.253Z,97283.59
2019-05-22T01:04:05.870Z,97275.62
2019-05-22T01:05:09.557Z,97283.48
2019-05-22T01:06:13.954Z,97274.48
2019-05-22T01:07:18.840Z,97274.62
2019-05-22T01:08:24.328Z,97267.55
2019-05-22T01:09:32.927Z,97276.06
2019-05-22T01:10:38.262Z,97278.52
2019-05-22T01:11:45.492Z,97277.86
2019-05-22T01:12:54.863Z,97283.14
2019-05-22T01:14:01.490Z,97283.65
2019-05-22T01:15:11.349Z,97283.65
2019-05-22T01:16:16.052Z,97280.94
2019-05-22T01:17:21.784Z,97280.94
2019-05-22T01:18:28.358Z,97285.67
2019-05-22T01:19:34.835Z,97289.80
2019-05-22T01:20:41.524Z,97290.36
2019-05-22T01:21:46.579Z,97290.36
2019-05-22T01:22:52.193Z,97294.52
2019-05-22T01:23:58.287Z,97292.05
2019-05-22T01:25:03.855Z,97289.69
2019-05-22T01:26:09.940Z,97289.69
2019-05-22T01:27:14.337Z,97291.50
2019-05-22T01:28:20.768Z,97290.59
2019-05-22T01:29:24.885Z,97293.05
2019-05-22T01:30:38.827Z,97293.28
2019-05-22T01:31:44.471Z,97289.59
2019-05-22T01:32:52.116Z,97292.27
2019-05-22T01:33:57.619Z,97293.84
2019-05-22T01:35:02.463Z,97302.33
2019-05-22T01:36:07.820Z,97295.73
2019-05-22T01:37:14.229Z,97308.39
2019-05-22T01:38:19.508Z,97306.02
2019-05-22T01:39:33.695Z,97300.20
2019-05-22T01:41:06.009Z,97303.88
2019-05-22T01:42:12.674Z,97298.18
2019-05-22T01:43:19.489Z,97299.30
2019-05-22T01:44:24.813Z,97298.06
2019-05-22T01:45:30.193Z,97294.13
2019-05-22T01:46:36.282Z,97298.52
2019-05-22T01:47:44.516Z,97297.72
2019-05-22T01:48:51.254Z,97308.80
2019-05-22T01:49:56.950Z,97309.36
2019-05-22T01:51:02.417Z,97309.59
2019-05-22T01:52:07.356Z,97311.37
2019-05-22T01:53:12.646Z,97309.47
2019-05-22T01:54:18.820Z,97311.58
2019-05-22T01:55:23.716Z,97305.97
2019-05-22T01:56:29.142Z,97303.95
2019-05-22T01:57:34.147Z,97302.87
2019-05-22T01:58:39.728Z,97304.42
2019-05-22T01:59:45.372Z,97304.51
2019-05-22T02:00:51.881Z,97297.55
2019-05-22T02:01:57.699Z,97303.52
2019-05-22T02:03:03.387Z,97303.84
2019-05-22T02:04:07.960Z,97304.83
2019-05-22T02:05:12.740Z,97309.77
2019-05-22T02:06:19.907Z,97309.09
2019-05-22T02:07:25.125Z,97311.00
2019-05-22T02:08:31.310Z,97307.61
2019-05-22T02:09:38.673Z,97308.40
2019-05-22T02:10:44.383Z,97308.40
2019-05-22T02:11:52.850Z,97309.86
2019-05-22T02:12:59.796Z,97309.86
2019-05-22T02:14:16.014Z,97308.25
2019-05-22T02:15:20.042Z,97308.77
2019-05-22T02:16:25.061Z,97311.34
2019-05-22T02:17:33.251Z,97316.59
2019-05-22T02:18:40.034Z,97316.59
2019-05-22T02:19:43.793Z,97320.16
2019-05-22T02:20:48.935Z,97317.70
2019-05-22T02:21:54.211Z,97320.48
2019-05-22T02:22:58.828Z,97320.03
2019-05-22T02:24:02.802Z,97317.47
2019-05-22T02:25:09.412Z,97310.36
2019-05-22T02:26:13.623Z,97313.34
2019-05-22T02:27:19.082Z,97310.19
2019-05-22T02:28:22.922Z,97310.55
2019-05-22T02:29:27.334Z,97311.34
2019-05-22T02:30:31.290Z,97313.47
2019-05-22T02:31:36.945Z,97313.47
2019-05-22T02:32:41.058Z,97311.23
2019-05-22T02:34:01.350Z,97311.23
2019-05-22T02:35:08.391Z,97313.00
2019-05-22T02:36:12.583Z,97317.73
2019-05-22T02:37:16.910Z,97314.58
2019-05-22T02:38:21.877Z,97322.31
2019-05-22T02:39:27.216Z,97322.31
2019-05-22T02:40:35.748Z,97320.42
2019-05-22T02:41:42.674Z,97304.22
2019-05-22T02:42:47.449Z,97315.88
2019-05-22T02:43:51.074Z,97313.19
2019-05-22T02:44:56.130Z,97307.58
2019-05-22T02:46:00.412Z,97310.25
2019-05-22T02:47:18.919Z,97299.91
2019-05-22T02:48:11.981Z,97307.45
2019-05-22T02:49:17.851Z,97307.45
2019-05-22T02:50:22.362Z,97306.44
2019-05-22T02:51:27.847Z,97305.33
2019-05-22T02:52:32.037Z,97299.91
2019-05-22T02:53:36.983Z,97303.54
2019-05-22T02:54:40.910Z,97311.97
2019-05-22T02:55:45.522Z,97311.97
2019-05-22T02:56:50.278Z,97322.10
2019-05-22T02:57:55.036Z,97311.50
2019-05-22T02:59:00.417Z,97311.50
2019-05-22T03:00:07.605Z,97323.20
2019-05-22T03:01:13.200Z,97323.20
2019-05-22T03:02:18.683Z,97326.57
2019-05-22T03:03:23.785Z,97317.17
2019-05-22T03:04:32.310Z,97309.12
2019-05-22T03:05:36.380Z,97315.28
2019-05-22T03:06:40.955Z,97315.28
2019-05-22T03:07:46.714Z,97319.86
2019-05-22T03:09:00.330Z,97324.78
2019-05-22T03:10:05.450Z,97330.84
2019-05-22T03:11:10.223Z,97331.27
2019-05-22T03:12:14.119Z,97328.10
2019-05-22T03:13:20.242Z,97328.10
2019-05-22T03:14:26.963Z,97329.05
2019-05-22T03:15:31.941Z,97329.05
2019-05-22T03:16:38.508Z,97331.27
2019-05-22T03:17:44.477Z,97331.27
2019-05-22T03:19:07.595Z,97320.52
2019-05-22T03:19:55.333Z,97334.00
2019-05-22T03:20:59.333Z,97325.94
2019-05-22T03:22:08.334Z,97330.76
2019-05-22T03:23:36.895Z,97338.02
2019-05-22T03:24:42.075Z,97336.88
2019-05-22T03:25:47.807Z,97338.02
2019-05-22T03:26:54.083Z,97339.26
2019-05-22T03:27:58.652Z,97333.33
2019-05-22T03:29:03.135Z,97337.00
2019-05-22T03:30:10.311Z,97337.00
2019-05-22T03:31:16.197Z,97334.00
2019-05-22T03:32:19.902Z,97344.00
2019-05-22T03:33:24.490Z,97342.30
2019-05-22T03:34:28.677Z,97342.30
2019-05-22T03:35:35.764Z,97346.02
2019-05-22T03:36:39.514Z,97346.02
2019-05-22T03:37:44.279Z,97344.05
2019-05-22T03:38:48.890Z,97335.27
2019-05-22T03:39:53.202Z,97337.89
2019-05-22T03:40:57.679Z,97341.37
2019-05-22T03:42:03.618Z,97339.23
2019-05-22T03:43:20.599Z,97346.38
2019-05-22T03:44:25.378Z,97347.30
2019-05-22T03:45:31.239Z,97341.92
2019-05-22T03:46:38.742Z,97341.92
2019-05-22T03:47:42.885Z,97344.84
2019-05-22T03:48:47.567Z,97344.84
2019-05-22T03:49:51.533Z,97342.40
2019-05-22T03:51:11.808Z,97342.40
2019-05-22T03:52:16.939Z,97351.75
2019-05-22T03:53:21.578Z,97351.75
2019-05-22T03:54:25.559Z,97363.40
2019-05-22T03:55:30.333Z,97353.52
2019-05-22T03:56:37.516Z,97353.52
2019-05-22T03:57:42.375Z,97358.75
2019-05-22T03:58:47.287Z,97364.22
2019-05-22T03:59:51.673Z,97373.75
2019-05-22T04:00:56.663Z,97373.75
2019-05-22T04:02:01.194Z,97373.31
2019-05-22T04:03:05.992Z,97374.22
2019-05-22T04:04:12.026Z,97370.23
2019-05-22T04:05:18.676Z,97363.83
2019-05-22T04:06:24.624Z,97363.91
2019-05-22T04:07:28.815Z,97362.08
2019-05-22T04:08:33.480Z,97359.39
2019-05-22T04:09:40.285Z,97358.28
2019-05-22T04:11:00.441Z,97357.30
2019-05-22T04:12:04.311Z,97359.00
2019-05-22T04:13:08.840Z,97354.61
2019-05-22T04:14:12.584Z,97350.03
2019-05-22T04:15:17.664Z,97350.03
2019-05-22T04:16:24.993Z,97343.51
2019-05-22T04:17:29.185Z,97344.65
2019-05-22T04:18:33.144Z,97345.76
2019-05-22T04:19:49.646Z,97351.33
2019-05-22T04:20:42.994Z,97339.78
2019-05-22T04:21:47.863Z,97345.53
2019-05-22T04:22:53.127Z,97343.59
2019-05-22T04:23:57.410Z,97343.77
2019-05-22T04:25:01.368Z,97338.11
2019-05-22T04:26:09.327Z,97337.63
2019-05-22T04:27:13.356Z,97338.48
2019-05-22T04:28:17.991Z,97336.69
2019-05-22T04:29:24.881Z,97330.66
2019-05-22T04:30:30.066Z,97330.66
2019-05-22T04:31:37.001Z,97355.00
2019-05-22T04:32:44.255Z,97331.39
2019-05-22T04:33:51.564Z,97339.58
2019-05-22T04:34:57.106Z,97327.22
2019-05-22T04:36:01.793Z,97327.22
2019-05-22T04:37:06.067Z,97333.07
2019-05-22T04:38:10.511Z,97324.41
2019-05-22T04:39:23.195Z,97324.16
2019-05-22T04:40:36.211Z,97315.64
2019-05-22T04:41:41.511Z,97315.64
2019-05-22T04:42:45.782Z,97314.51
2019-05-22T04:43:50.565Z,97314.51
2019-05-22T04:45:12.726Z,97314.89
2019-05-22T04:46:18.175Z,97317.56
2019-05-22T04:47:22.392Z,97317.56
2019-05-22T04:48:27.765Z,97315.57
2019-05-22T04:49:31.773Z,97334.44
2019-05-22T04:50:36.044Z,97334.44
2019-05-22T04:51:39.831Z,97336.01
2019-05-22T04:52:44.017Z,97335.05
2019-05-22T04:53:47.997Z,97339.78
2019-05-22T04:54:52.835Z,97344.91
2019-05-22T04:55:56.729Z,97344.91
2019-05-22T04:57:02.238Z,97350.10
2019-05-22T04:58:07.600Z,97354.13
2019-05-22T04:59:13.286Z,97355.23
2019-05-22T05:00:18.891Z,97360.48
2019-05-22T05:01:23.756Z,97360.20
2019-05-22T05:02:28.015Z,97360.91
2019-05-22T05:03:32.580Z,97357.84
2019-05-22T05:04:36.205Z,97360.98
2019-05-22T05:05:42.272Z,97354.44
2019-05-22T05:06:46.167Z,97344.53
2019-05-22T05:07:52.753Z,97344.53
2019-05-22T05:08:57.370Z,97347.50
2019-05-22T05:10:01.734Z,97345.62
2019-05-22T05:11:06.170Z,97353.70
2019-05-22T05:12:11.252Z,97355.52
2019-05-22T05:13:15.214Z,97358.89
2019-05-22T05:14:19.641Z,97351.75
2019-05-22T05:15:23.345Z,97343.01
2019-05-22T05:16:27.642Z,97343.01
2019-05-22T05:17:31.595Z,97352.48
2019-05-22T05:18:36.455Z,97353.96
2019-05-22T05:19:40.565Z,97353.31
2019-05-22T05:20:45.301Z,97353.31
2019-05-22T05:21:49.445Z,97351.10
2019-05-22T05:22:54.103Z,97351.10
2019-05-22T05:23:57.837Z,97358.34
2019-05-22T05:25:02.376Z,97360.27
2019-05-22T05:26:06.572Z,97353.42
2019-05-22T05:27:11.449Z,97353.42
2019-05-22T05:28:16.737Z,97362.77
2019-05-22T05:29:29.602Z,97365.86
2019-05-22T05:30:33.390Z,97353.85
2019-05-22T05:31:37.613Z,97364.09
2019-05-22T05:32:43.215Z,97361.96
2019-05-22T05:34:17.745Z,97368.38
2019-05-22T05:35:22.161Z,97362.75
2019-05-22T05:36:26.858Z,97362.75
2019-05-22T05:37:30.849Z,97364.37
2019-05-22T05:38:39.573Z,97365.11
2019-05-22T05:39:46.107Z,97362.91
2019-05-22T05:40:50.907Z,97362.91
2019-05-22T05:41:54.639Z,97354.17
2019-05-22T05:43:00.154Z,97363.91
2019-05-22T05:44:04.676Z,97372.05
2019-05-22T05:45:13.503Z,97372.48
2019-05-22T05:46:17.664Z,97375.20
2019-05-22T05:47:22.312Z,97375.23
2019-05-22T05:48:28.021Z,97379.09
2019-05-22T05:49:32.335Z,97372.84
2019-05-22T05:50:40.206Z,97369.25
2019-05-22T05:51:43.572Z,97366.12
2019-05-22T05:52:48.076Z,97364.94
2019-05-22T05:53:59.291Z,97366.00
2019-05-22T05:55:03.722Z,97361.27
2019-05-22T05:56:17.174Z,97366.09
2019-05-22T05:57:39.218Z,97359.06
2019-05-22T05:58:44.120Z,97357.73
2019-05-22T05:59:49.532Z,97357.05
2019-05-22T06:00:56.917Z,97359.32
2019-05-22T06:02:00.649Z,97357.43
2019-05-22T06:03:35.350Z,97356.20
2019-05-22T06:04:39.601Z,97363.50
2019-05-22T06:05:45.593Z,97363.17
2019-05-22T06:07:00.528Z,97357.80
2019-05-22T06:08:02.392Z,97364.92
2019-05-22T06:09:10.900Z,97364.92
2019-05-22T06:10:30.720Z,97365.28
2019-05-22T06:11:56.568Z,97363.37
2019-05-22T06:13:02.435Z,97370.08
2019-05-22T06:14:08.782Z,97370.20
2019-05-22T06:15:13.857Z,97374.34
2019-05-22T06:16:20.874Z,97375.56
2019-05-22T06:17:41.018Z,97374.09
2019-05-22T06:18:44.723Z,97371.71
2019-05-22T06:19:54.544Z,97370.18
2019-05-22T06:21:04.000Z,97373.33
2019-05-22T06:22:04.916Z,97373.17
2019-05-22T06:23:27.639Z,97368.53
2019-05-22T06:24:40.821Z,97368.53
2019-05-22T06:25:45.110Z,97374.88
2019-05-22T06:26:58.419Z,97364.98
2019-05-22T06:28:04.992Z,97370.28
2019-05-22T06:29:11.131Z,97367.25
2019-05-22T06:30:17.923Z,97364.84
2019-05-22T06:31:37.815Z,97361.44
2019-05-22T06:33:13.333Z,97363.08
2019-05-22T06:34:17.585Z,97355.50
2019-05-22T06:35:21.874Z,97352.24
2019-05-22T06:36:26.396Z,97352.41
2019-05-22T06:37:39.100Z,97346.88
2019-05-22T06:38:49.393Z,97340.11
2019-05-22T06:39:53.012Z,97335.48
2019-05-22T06:40:57.958Z,97337.12
2019-05-22T06:42:02.261Z,97334.98
2019-05-22T06:43:21.493Z,97334.25
2019-05-22T06:44:35.775Z,97328.94
2019-05-22T06:45:39.970Z,97333.20
2019-05-22T06:46:46.082Z,97327.27
2019-05-22T06:47:50.391Z,97332.86
2019-05-22T06:48:57.426Z,97335.27
2019-05-22T06:50:02.299Z,97327.27
2019-05-22T06:51:18.630Z,97330.77
2019-05-22T06:52:13.459Z,97329.84
2019-05-22T06:53:17.606Z,97329.68
2019-05-22T06:54:21.787Z,97330.52
2019-05-22T06:55:25.347Z,97331.00
2019-05-22T06:56:29.750Z,97333.87
2019-05-22T06:57:34.963Z,97330.95
2019-05-22T06:58:39.172Z,97323.56
2019-05-22T06:59:43.638Z,97324.15
2019-05-22T07:00:48.333Z,97319.63
2019-05-22T07:02:00.783Z,97319.91
2019-05-22T07:02:58.968Z,97318.06
2019-05-22T07:04:02.899Z,97322.31
2019-05-22T07:05:08.509Z,97311.99
2019-05-22T07:06:12.629Z,97307.28
2019-05-22T07:07:18.040Z,97311.02
2019-05-22T07:08:21.765Z,97307.62
2019-05-22T07:09:26.636Z,97303.70
2019-05-22T07:10:31.766Z,97306.52
2019-05-22T07:11:36.037Z,97303.59
2019-05-22T07:12:40.142Z,97294.21
2019-05-22T07:13:45.235Z,97298.16
2019-05-22T07:15:08.598Z,97289.28
2019-05-22T07:16:12.808Z,97287.96
2019-05-22T07:17:18.029Z,97285.30
2019-05-22T07:18:23.585Z,97280.41
2019-05-22T07:19:29.518Z,97283.96
2019-05-22T07:20:35.052Z,97287.79
2019-05-22T07:21:39.558Z,97286.68
2019-05-22T07:22:44.761Z,97283.16
2019-05-22T07:23:49.071Z,97281.87
2019-05-22T07:24:53.367Z,97278.32
2019-05-22T07:25:58.744Z,97272.73
2019-05-22T07:27:25.100Z,97272.60
2019-05-22T07:28:29.108Z,97267.17
2019-05-22T07:29:34.378Z,97266.30
2019-05-22T07:30:39.092Z,97260.27
2019-05-22T07:31:43.372Z,97262.63
2019-05-22T07:32:47.093Z,97261.71
2019-05-22T07:33:53.420Z,97257.63
2019-05-22T07:34:57.621Z,97258.63
2019-05-22T07:36:12.051Z,97252.97
2019-05-22T07:37:07.153Z,97246.70
2019-05-22T07:38:12.039Z,97246.12
2019-05-22T07:39:15.757Z,97247.52
2019-05-22T07:40:20.456Z,97246.25
2019-05-22T07:41:24.703Z,97244.54
2019-05-22T07:42:29.102Z,97247.88
2019-05-22T07:43:33.278Z,97250.75
2019-05-22T07:44:37.565Z,97253.22
2019-05-22T07:45:41.671Z,97256.07
2019-05-22T07:46:46.400Z,97253.90
2019-05-22T07:47:52.094Z,97255.83
2019-05-22T07:48:56.524Z,97254.27
2019-05-22T07:50:00.265Z,97256.28
2019-05-22T07:51:04.459Z,97254.05
2019-05-22T07:52:08.671Z,97255.92
2019-05-22T07:53:13.082Z,97260.84
2019-05-22T07:54:16.719Z,97262.55
2019-05-22T07:55:22.878Z,97264.84
2019-05-22T07:56:28.629Z,97264.27
2019-05-22T07:57:34.807Z,97261.33
2019-05-22T07:58:38.729Z,97258.55
2019-05-22T07:59:42.958Z,97256.19
2019-05-22T08:00:51.173Z,97259.47
2019-05-22T08:01:55.349Z,97252.44
2019-05-22T08:02:59.910Z,97254.55
2019-05-22T08:04:05.236Z,97254.05
2019-05-22T08:05:09.687Z,97256.41
2019-05-22T08:06:15.268Z,97253.23
2019-05-22T08:07:20.644Z,97246.48
2019-05-22T08:08:26.544Z,97246.41
2019-05-22T08:09:30.625Z,97239.38
2019-05-22T08:10:35.138Z,97242.63
2019-05-22T08:11:39.089Z,97242.95
2019-05-22T08:12:44.656Z,97240.46
2019-05-22T08:13:48.755Z,97232.36
2019-05-22T08:14:53.787Z,97234.45
2019-05-22T08:15:58.196Z,97227.48
2019-05-22T08:17:05.141Z,97227.05
2019-05-22T08:18:09.551Z,97226.99
2019-05-22T08:19:13.858Z,97227.14
2019-05-22T08:20:17.470Z,97221.59
2019-05-22T08:21:23.567Z,97227.06
2019-05-22T08:22:29.858Z,97226.41
2019-05-22T08:23:35.152Z,97218.20
2019-05-22T08:24:39.355Z,97215.41
2019-05-22T08:25:43.983Z,97211.50
2019-05-22T08:26:54.324Z,97209.28
2019-05-22T08:27:56.688Z,97208.70
2019-05-22T08:29:01.741Z,97201.67
2019-05-22T08:30:08.461Z,97198.14
2019-05-22T08:31:13.271Z,97204.38
2019-05-22T08:32:19.461Z,97206.80
2019-05-22T08:33:25.378Z,97215.30
2019-05-22T08:34:29.569Z,97207.91
2019-05-22T08:35:34.021Z,97202.59
2019-05-22T08:36:39.386Z,97203.80
2019-05-22T08:37:44.562Z,97208.80
2019-05-22T08:38:49.341Z,97193.14
2019-05-22T08:39:53.179Z,97190.55
2019-05-22T08:40:59.261Z,97191.16
2019-05-22T08:42:05.568Z,97192.64
2019-05-22T08:43:10.081Z,97194.02
2019-05-22T08:44:17.407Z,97195.33
2019-05-22T08:45:22.091Z,97196.05
2019-05-22T08:46:26.638Z,97187.68
2019-05-22T08:47:31.219Z,97189.23
2019-05-22T08:48:36.483Z,97189.72
2019-05-22T08:49:41.232Z,97189.56
2019-05-22T08:50:46.658Z,97188.72
2019-05-22T08:51:51.006Z,97197.69
2019-05-22T08:52:55.291Z,97190.92
2019-05-22T08:54:00.689Z,97185.95
2019-05-22T08:55:07.123Z,97187.76
2019-05-22T08:56:11.717Z,97190.05
2019-05-22T08:57:16.198Z,97192.64
2019-05-22T08:58:20.385Z,97193.84
2019-05-22T08:59:24.984Z,97197.07
2019-05-22T09:00:30.537Z,97187.28
2019-05-22T09:01:34.177Z,97183.39
2019-05-22T09:02:38.942Z,97183.47
2019-05-22T09:03:42.895Z,97180.51
2019-05-22T09:04:47.556Z,97171.17
2019-05-22T09:05:52.097Z,97173.73
2019-05-22T09:06:57.273Z,97174.00
2019-05-22T09:08:01.052Z,97174.64
2019-05-22T09:09:07.329Z,97176.86
2019-05-22T09:10:12.628Z,97171.53
2019-05-22T09:11:17.031Z,97177.45
2019-05-22T09:12:20.675Z,97180.47
2019-05-22T09:13:24.858Z,97177.67
2019-05-22T09:14:28.580Z,97170.45
2019-05-22T09:15:34.185Z,97171.36
2019-05-22T09:16:38.071Z,97163.28
2019-05-22T09:17:42.274Z,97166.02
2019-05-22T09:18:46.382Z,97156.52
2019-05-22T09:19:51.337Z,97158.14
2019-05-22T09:20:55.277Z,97159.06
2019-05-22T09:21:59.557Z,97159.63
2019-05-22T09:23:05.349Z,97159.23
2019-05-22T09:24:12.557Z,97160.77
2019-05-22T09:25:17.190Z,97161.66
2019-05-22T09:26:23.193Z,97158.17
2019-05-22T09:27:27.324Z,97158.02
2019-05-22T09:28:31.652Z,97159.93
2019-05-22T09:29:35.573Z,97153.39
2019-05-22T09:30:40.727Z,97154.39
2019-05-22T09:31:44.723Z,97158.22
2019-05-22T09:32:49.023Z,97158.71
2019-05-22T09:33:53.293Z,97160.38
2019-05-22T09:34:57.653Z,97157.57
2019-05-22T09:36:01.378Z,97162.14
2019-05-22T09:37:06.413Z,97165.62
2019-05-22T09:38:10.377Z,97162.66
2019-05-22T09:39:14.558Z,97164.63
2019-05-22T09:40:18.808Z,97168.31
2019-05-22T09:41:23.491Z,97162.48
2019-05-22T09:42:27.881Z,97161.14
2019-05-22T09:43:32.140Z,97157.63
2019-05-22T09:44:35.815Z,97155.79
2019-05-22T09:45:40.096Z,97152.83
2019-05-22T09:46:44.481Z,97146.03
2019-05-22T09:47:48.971Z,97151.39
2019-05-22T09:48:52.763Z,97155.45
2019-05-22T09:49:57.423Z,97156.95
2019-05-22T09:51:02.091Z,97162.02
2019-05-22T09:52:09.915Z,97160.19
2019-05-22T09:53:14.005Z,97170.93
2019-05-22T09:54:18.597Z,97164.08
2019-05-22T09:55:23.087Z,97151.27
2019-05-22T09:56:29.340Z,97156.97
2019-05-22T09:57:33.145Z,97157.45
2019-05-22T09:58:37.665Z,97156.86
2019-05-22T09:59:41.293Z,97154.59
2019-05-22T10:00:45.479Z,97150.45
2019-05-22T10:01:49.666Z,97150.55
2019-05-22T10:02:54.482Z,97154.28
2019-05-22T10:03:58.328Z,97154.50
2019-05-22T10:05:02.526Z,97155.72
2019-05-22T10:06:07.659Z,97157.97
2019-05-22T10:07:11.893Z,97154.74
2019-05-22T10:08:15.659Z,97150.17
2019-05-22T10:09:19.862Z,97150.37
2019-05-22T10:10:25.143Z,97152.95
2019-05-22T10:11:29.925Z,97151.15
2019-05-22T10:12:33.834Z,97149.79
2019-05-22T10:13:38.296Z,97144.00
2019-05-22T10:14:42.551Z,97147.33
2019-05-22T10:15:46.965Z,97140.61
2019-05-22T10:16:50.563Z,97140.11
2019-05-22T10:17:55.717Z,97141.98
2019-05-22T10:18:59.817Z,97141.55
2019-05-22T10:20:04.982Z,97144.98
2019-05-22T10:21:09.389Z,97137.55
2019-05-22T10:22:14.401Z,97140.80
2019-05-22T10:23:19.005Z,97138.11
2019-05-22T10:24:23.425Z,97136.92
2019-05-22T10:25:28.043Z,97134.19
2019-05-22T10:26:32.360Z,97135.96
2019-05-22T10:27:36.983Z,97133.91
2019-05-22T10:28:42.267Z,97131.58
2019-05-22T10:29:46.817Z,97128.80
2019-05-22T10:30:51.780Z,97138.84
2019-05-22T10:31:55.636Z,97129.73
2019-05-22T10:33:00.403Z,97130.63
2019-05-22T10:34:04.294Z,97136.50
2019-05-22T10:35:09.178Z,97129.59
2019-05-22T10:36:13.508Z,97132.45
2019-05-22T10:37:17.893Z,97133.14
2019-05-22T10:38:21.728Z,97121.62
2019-05-22T10:39:26.477Z,97125.06
2019-05-22T10:40:30.163Z,97125.55
2019-05-22T10:41:34.628Z,97119.05
2019-05-22T10:42:38.274Z,97117.75
2019-05-22T10:43:42.740Z,97121.39
2019-05-22T10:44:46.517Z,97118.28
2019-05-22T10:45:50.783Z,97111.38
2019-05-22T10:46:54.528Z,97114.09
2019-05-22T10:47:58.804Z,97113.72
2019-05-22T10:49:02.721Z,97113.88
2019-05-22T10:50:08.151Z,97104.19
2019-05-22T10:51:12.080Z,97102.19
2019-05-22T10:52:17.169Z,97106.50
2019-05-22T10:53:33.045Z,97106.17
2019-05-22T10:54:27.019Z,97102.02
2019-05-22T10:55:30.649Z,97094.16
2019-05-22T10:56:35.147Z,97094.81
2019-05-22T10:57:40.868Z,97097.14
2019-05-22T10:58:45.393Z,97102.03
2019-05-22T10:59:49.041Z,97101.26
2019-05-22T11:00:54.023Z,97098.97
2019-05-22T11:01:57.728Z,97104.02
2019-05-22T11:03:02.048Z,97096.31
2019-05-22T11:04:06.019Z,97092.17
2019-05-22T11:05:11.179Z,97089.27
2019-05-22T11:06:14.866Z,97086.02
2019-05-22T11:07:20.122Z,97089.56
2019-05-22T11:08:24.878Z,97084.34
2019-05-22T11:09:29.287Z,97092.05
2019-05-22T11:10:33.306Z,97086.96
2019-05-22T11:11:38.064Z,97091.12
2019-05-22T11:12:41.690Z,97091.88
2019-05-22T11:13:59.919Z,97093.88
2019-05-22T11:14:51.959Z,97090.11
2019-05-22T11:15:57.481Z,97085.86
2019-05-22T11:17:01.596Z,97090.31
2019-05-22T11:18:06.982Z,97085.75
2019-05-22T11:19:10.751Z,97093.59
2019-05-22T11:20:16.102Z,97094.54
2019-05-22T11:21:20.122Z,97093.09
2019-05-22T11:22:24.594Z,97094.49
2019-05-22T11:23:29.142Z,97093.27
2019-05-22T11:24:33.707Z,97099.87
2019-05-22T11:25:37.769Z,97100.09
2019-05-22T11:26:42.678Z,97092.12
2019-05-22T11:27:47.206Z,97097.86
2019-05-22T11:28:51.483Z,97091.88
2019-05-22T11:29:55.357Z,97091.38
2019-05-22T11:31:00.186Z,97079.25
2019-05-22T11:32:04.070Z,97076.48
2019-05-22T11:33:10.160Z,97069.28
2019-05-22T11:34:14.119Z,97071.12
2019-05-22T11:35:19.772Z,97064.50
2019-05-22T11:36:24.596Z,97057.43
2019-05-22T11:37:28.855Z,97063.58
2019-05-22T11:38:32.854Z,97056.17
2019-05-22T11:39:40.315Z,97060.65
2019-05-22T11:40:44.006Z,97049.72
2019-05-22T11:41:51.795Z,97055.44
2019-05-22T11:42:55.661Z,97050.54
2019-05-22T11:44:00.273Z,97057.42
2019-05-22T11:45:05.022Z,97057.42
2019-05-22T11:46:09.552Z,97056.34
2019-05-22T11:47:15.277Z,97056.98
2019-05-22T11:48:19.853Z,97057.58
2019-05-22T11:49:24.280Z,97051.16
2019-05-22T11:50:29.681Z,97051.28
2019-05-22T11:51:33.521Z,97056.19
2019-05-22T11:52:38.913Z,97049.69
2019-05-22T11:53:43.060Z,97048.12
2019-05-22T11:54:47.444Z,97054.88
2019-05-22T11:55:51.114Z,97054.17
2019-05-22T11:56:55.358Z,97054.48
2019-05-22T11:57:59.369Z,97053.05
2019-05-22T11:59:04.454Z,97051.48
2019-05-22T12:00:09.499Z,97044.52
2019-05-22T12:01:14.309Z,97045.35
2019-05-22T12:02:19.338Z,97042.57
2019-05-22T12:03:25.317Z,97042.56
2019-05-22T12:04:46.632Z,97042.13
2019-05-22T12:05:36.485Z,97035.80
2019-05-22T12:06:40.839Z,97029.67
2019-05-22T12:07:46.881Z,97024.97
2019-05-22T12:08:51.193Z,97023.57
2019-05-22T12:09:56.449Z,97021.57
2019-05-22T12:11:02.039Z,97017.73
2019-05-22T12:12:06.862Z,97021.42
2019-05-22T12:13:10.860Z,97029.25
2019-05-22T12:14:17.056Z,97022.36
2019-05-22T12:15:24.114Z,97026.16
2019-05-22T12:16:29.046Z,97022.89
2019-05-22T12:17:38.020Z,97026.25
2019-05-22T12:18:39.906Z,97021.08
2019-05-22T12:19:43.776Z,97021.23
2019-05-22T12:20:48.745Z,97023.11
2019-05-22T12:21:54.679Z,97024.18
2019-05-22T12:22:59.603Z,97028.58
2019-05-22T12:24:03.265Z,97026.68
2019-05-22T12:25:10.792Z,97027.77
2019-05-22T12:26:14.502Z,97028.51
2019-05-22T12:27:18.770Z,97028.30
2019-05-22T12:28:22.875Z,97017.68
2019-05-22T12:29:27.787Z,97020.30
2019-05-22T12:30:32.125Z,97011.05
2019-05-22T12:31:36.376Z,97019.25
2019-05-22T12:32:40.971Z,97015.86
2019-05-22T12:33:45.514Z,97017.22
2019-05-22T12:34:49.829Z,97017.87
2019-05-22T12:35:54.767Z,97016.91
2019-05-22T12:36:59.112Z,97013.23
2019-05-22T12:38:05.397Z,97009.88
2019-05-22T12:39:10.536Z,97006.82
2019-05-22T12:40:17.863Z,96995.97
2019-05-22T12:41:22.432Z,96995.94
2019-05-22T12:42:27.931Z,96992.63
2019-05-22T12:43:31.953Z,96993.41
2019-05-22T12:44:36.150Z,96991.53
2019-05-22T12:45:40.122Z,96995.56
2019-05-22T12:46:44.715Z,96998.03
2019-05-22T12:47:48.342Z,97002.47
2019-05-22T12:48:53.557Z,97006.52
2019-05-22T12:49:57.196Z,97002.45
2019-05-22T12:51:01.527Z,96996.77
2019-05-22T12:52:06.373Z,96998.20
2019-05-22T12:53:12.110Z,96993.34
2019-05-22T12:54:16.378Z,96997.01